createdAt,value
2023-03-12T00:03:31.393Z,99.90
2023-03-12T00:08:34.716Z,99.90
2023-03-12T00:13:39.824Z,99.90
2023-03-12T00:18:43.868Z,99.90
2023-03-12T00:23:48.301Z,99.90
2023-03-12T00:28:53.746Z,99.90
2023-03-12T00:33:57.913Z,99.90
2023-03-12T00:39:02.638Z,99.90
2023-03-12T00:44:07.862Z,99.90
2023-03-12T00:49:11.761Z,99.90
2023-03-12T00:54:15.514Z,99.90
2023-03-12T00:59:20.423Z,99.90
2023-03-12T01:04:24.678Z,99.90
2023-03-12T01:09:28.470Z,99.90
2023-03-12T01:14:33.169Z,99.90
2023-03-12T01:19:36.802Z,99.90
2023-03-12T01:24:40.577Z,99.90
2023-03-12T01:29:45.184Z,99.90
2023-03-12T01:34:48.716Z,99.90
2023-03-12T01:39:51.939Z,99.90
2023-03-12T01:44:59.297Z,99.90
2023-03-12T01:50:04.935Z,99.90
2023-03-12T01:55:11.785Z,99.90
2023-03-12T02:00:21.662Z,99.90
2023-03-12T02:05:31.641Z,99.90
2023-03-12T02:10:35.305Z,99.90
2023-03-12T02:15:41.323Z,99.90
2023-03-12T02:20:53.956Z,99.90
2023-03-12T02:25:59.839Z,99.90
2023-03-12T02:31:07.299Z,99.90
2023-03-12T02:36:11.258Z,99.90
2023-03-12T02:41:20.278Z,99.90
2023-03-12T02:46:23.846Z,99.90
2023-03-12T02:51:27.448Z,99.90
2023-03-12T02:56:32.411Z,99.90
2023-03-12T03:01:36.407Z,99.90
2023-03-12T03:06:43.017Z,99.90
2023-03-12T03:11:48.198Z,99.90
2023-03-12T03:16:51.593Z,99.90
2023-03-12T03:21:58.808Z,99.90
2023-03-12T03:27:03.727Z,99.90
2023-03-12T03:32:07.751Z,99.90
2023-03-12T03:37:11.115Z,99.90
2023-03-12T03:42:16.571Z,99.90
2023-03-12T03:47:20.527Z,99.90
2023-03-12T03:52:23.899Z,99.90
2023-03-12T03:57:29.394Z,99.90
2023-03-12T04:02:33.218Z,99.90
2023-03-12T04:07:37.167Z,99.90
2023-03-12T04:12:42.268Z,99.90
2023-03-12T04:17:45.827Z,99.90
2023-03-12T04:22:49.175Z,99.90
2023-03-12T04:27:54.908Z,99.90
2023-03-12T04:32:58.303Z,99.90
2023-03-12T04:38:03.352Z,99.90
2023-03-12T04:43:09.048Z,99.90
2023-03-12T04:48:13.942Z,99.90
2023-03-12T04:53:17.849Z,99.90
2023-03-12T04:58:24.239Z,99.90
2023-03-12T05:03:28.157Z,99.90
2023-03-12T05:08:33.312Z,99.90
2023-03-12T05:13:38.327Z,99.90
2023-03-12T05:18:42.278Z,99.90
2023-03-12T05:23:47.346Z,99.90
2023-03-12T05:28:53.334Z,99.90
2023-03-12T05:33:59.710Z,99.90
2023-03-12T05:39:03.542Z,99.90
2023-03-12T05:44:13.671Z,99.90
2023-03-12T05:49:19.136Z,99.90
2023-03-12T05:54:22.971Z,99.90
2023-03-12T05:59:29.663Z,99.90
2023-03-12T06:04:33.472Z,99.90
2023-03-12T06:09:37.656Z,99.90
2023-03-12T06:14:43.181Z,99.90
2023-03-12T06:19:47.701Z,99.90
2023-03-12T06:24:51.078Z,99.90
2023-03-12T06:29:56.441Z,99.90
2023-03-12T06:35:00.815Z,99.90
2023-03-12T06:40:07.418Z,99.90
2023-03-12T06:45:12.838Z,99.90
2023-03-12T06:50:16.443Z,99.90
2023-03-12T06:55:19.740Z,99.90
2023-03-12T07:00:25.322Z,99.90
2023-03-12T07:05:30.101Z,99.90
2023-03-12T07:10:33.495Z,99.90
2023-03-12T07:15:38.083Z,99.90
2023-03-12T07:20:43.318Z,99.90
2023-03-12T07:25:47.979Z,99.90
2023-03-12T07:30:52.750Z,99.90
2023-03-12T07:35:56.249Z,99.90
2023-03-12T07:41:00.945Z,99.90
2023-03-12T07:46:06.182Z,99.90
2023-03-12T07:51:09.575Z,99.90
2023-03-12T07:56:12.944Z,99.90
2023-03-12T08:01:18.315Z,99.90
2023-03-12T08:06:21.862Z,99.90
2023-03-12T08:11:25.102Z,99.80
2023-03-12T08:16:29.801Z,99.20
2023-03-12T08:21:33.129Z,98.90
2023-03-12T08:26:36.349Z,98.50
2023-03-12T08:31:53.810Z,97.80
2023-03-12T08:37:05.007Z,97.40
2023-03-12T08:42:08.824Z,97.10
2023-03-12T08:47:13.471Z,96.50
2023-03-12T08:52:17.162Z,95.90
2023-03-12T08:57:20.859Z,95.40
2023-03-12T09:02:26.047Z,95.20
2023-03-12T09:07:29.840Z,94.60
2023-03-12T09:12:33.765Z,93.70
2023-03-12T09:17:38.840Z,93.30
2023-03-12T09:22:43.156Z,92.80
2023-03-12T09:27:48.521Z,92.30
2023-03-12T09:32:53.681Z,91.70
2023-03-12T09:37:57.423Z,91.20
2023-03-12T09:43:04.242Z,90.60
2023-03-12T09:48:16.013Z,90.50
2023-03-12T09:53:28.871Z,89.80
2023-03-12T09:58:34.293Z,89.00
2023-03-12T10:03:56.147Z,87.80
2023-03-12T10:09:13.674Z,86.50
2023-03-12T10:14:26.842Z,84.90
2023-03-12T10:19:52.214Z,84.20
2023-03-12T10:25:06.647Z,83.00
2023-03-12T10:30:19.765Z,82.20
2023-03-12T10:35:27.385Z,81.20
2023-03-12T10:40:34.600Z,81.30
2023-03-12T10:45:43.717Z,81.00
2023-03-12T10:51:02.958Z,80.50
2023-03-12T10:56:08.877Z,79.60
2023-03-12T11:01:21.581Z,79.40
2023-03-12T11:06:28.663Z,78.90
2023-03-12T11:11:34.213Z,77.80
2023-03-12T11:16:37.530Z,77.10
2023-03-12T11:21:56.968Z,76.90
2023-03-12T11:27:06.916Z,76.60
2023-03-12T11:32:17.846Z,76.30
2023-03-12T11:37:32.942Z,76.00
2023-03-12T11:42:51.987Z,76.30
2023-03-12T11:48:15.737Z,75.50
2023-03-12T11:53:40.425Z,75.30
2023-03-12T11:59:11.994Z,74.90
2023-03-12T12:04:37.349Z,74.20
2023-03-12T12:09:50.476Z,74.00
2023-03-12T12:15:05.369Z,73.40
2023-03-12T12:20:26.847Z,72.50
2023-03-12T12:25:46.791Z,72.20
2023-03-12T12:31:06.221Z,72.20
2023-03-12T12:36:11.371Z,71.20
2023-03-12T12:41:19.341Z,71.10
2023-03-12T12:46:25.050Z,71.30
2023-03-12T12:51:31.366Z,71.20
2023-03-12T12:56:44.917Z,71.40
2023-03-12T13:01:48.849Z,71.60
2023-03-12T13:07:01.298Z,71.00
2023-03-12T13:12:22.888Z,71.00
2023-03-12T13:17:36.791Z,70.90
2023-03-12T13:23:06.913Z,70.80
2023-03-12T13:28:35.594Z,71.00
2023-03-12T13:33:44.984Z,71.20
2023-03-12T13:38:56.931Z,72.00
2023-03-12T13:44:02.315Z,73.20
2023-03-12T13:49:12.597Z,74.70
2023-03-12T13:54:19.894Z,76.20
2023-03-12T13:59:26.995Z,77.30
2023-03-12T14:04:41.400Z,78.30
2023-03-12T14:09:51.607Z,78.40
2023-03-12T14:15:08.489Z,78.70
2023-03-12T14:20:17.712Z,79.00
2023-03-12T14:25:29.517Z,79.30
2023-03-12T14:30:47.103Z,79.30
2023-03-12T14:35:56.880Z,79.80
2023-03-12T14:41:06.322Z,80.50
2023-03-12T14:46:18.372Z,81.70
2023-03-12T14:51:24.694Z,82.70
2023-03-12T14:56:30.888Z,83.80
2023-03-12T15:01:39.626Z,84.20
2023-03-12T15:06:46.919Z,84.50
2023-03-12T15:11:55.753Z,84.90
2023-03-12T15:17:01.511Z,85.00
2023-03-12T15:22:05.651Z,85.60
2023-03-12T15:27:24.447Z,86.00
2023-03-12T15:32:31.986Z,86.10
2023-03-12T15:37:38.352Z,86.40
2023-03-12T15:42:44.878Z,86.80
2023-03-12T15:47:50.880Z,86.90
2023-03-12T15:53:01.952Z,87.20
2023-03-12T15:58:24.992Z,87.60
2023-03-12T16:03:29.608Z,88.00
2023-03-12T16:08:39.366Z,88.70
2023-03-12T16:13:44.106Z,89.30
2023-03-12T16:18:48.740Z,89.70
2023-03-12T16:23:52.055Z,90.20
2023-03-12T16:28:55.369Z,90.50
2023-03-12T16:34:00.884Z,90.80
2023-03-12T16:39:04.315Z,91.10
2023-03-12T16:44:09.396Z,91.40
2023-03-12T16:49:16.627Z,91.70
2023-03-12T16:54:20.035Z,92.10
2023-03-12T16:59:26.430Z,92.40
2023-03-12T17:04:31.246Z,92.70
2023-03-12T17:09:34.776Z,93.00
2023-03-12T17:14:38.469Z,93.50
2023-03-12T17:19:43.116Z,93.90
2023-03-12T17:24:47.215Z,94.20
2023-03-12T17:29:50.646Z,94.50
2023-03-12T17:34:57.678Z,94.80
2023-03-12T17:40:01.806Z,95.10
2023-03-12T17:45:07.718Z,95.40
2023-03-12T17:50:14.292Z,95.70
2023-03-12T17:55:18.042Z,95.90
2023-03-12T18:00:23.073Z,96.20
2023-03-12T18:05:28.226Z,96.50
2023-03-12T18:10:32.935Z,96.90
2023-03-12T18:15:36.266Z,97.20
2023-03-12T18:20:41.018Z,97.50
2023-03-12T18:25:45.566Z,97.70
2023-03-12T18:30:49.412Z,97.90
2023-03-12T18:35:54.727Z,98.10
2023-03-12T18:41:12.475Z,98.30
2023-03-12T18:46:15.875Z,98.50
2023-03-12T18:51:20.837Z,98.70
2023-03-12T18:56:24.188Z,98.90
2023-03-12T19:01:27.526Z,99.20
2023-03-12T19:06:47.852Z,99.40
2023-03-12T19:11:53.347Z,99.60
2023-03-12T19:16:56.973Z,99.90
2023-03-12T19:22:01.718Z,99.90
2023-03-12T19:27:05.232Z,99.90
2023-03-12T19:32:09.304Z,99.90
2023-03-12T19:37:13.990Z,99.90
2023-03-12T19:42:17.711Z,99.90
2023-03-12T19:47:22.114Z,99.90
2023-03-12T19:52:27.315Z,99.90
2023-03-12T19:57:30.608Z,99.90
2023-03-12T20:02:34.104Z,99.90
2023-03-12T20:07:39.629Z,99.90
2023-03-12T20:12:43.109Z,99.90
2023-03-12T20:17:46.319Z,99.90
2023-03-12T20:22:50.913Z,99.90
2023-03-12T20:27:54.186Z,99.90
2023-03-12T20:32:57.455Z,99.90
2023-03-12T20:38:02.493Z,99.90
2023-03-12T20:43:06.265Z,99.90
2023-03-12T20:48:09.523Z,99.90
2023-03-12T20:53:14.537Z,99.90
2023-03-12T20:58:18.170Z,99.90
2023-03-12T21:03:21.564Z,99.90
2023-03-12T21:08:27.302Z,99.90
2023-03-12T21:13:31.058Z,99.90
2023-03-12T21:18:34.413Z,99.90
2023-03-12T21:23:39.635Z,99.90
2023-03-12T21:28:42.978Z,99.90
2023-03-12T21:33:49.020Z,99.90
2023-03-12T21:38:53.909Z,99.90
2023-03-12T21:43:57.437Z,99.90
2023-03-12T21:49:01.377Z,99.90
2023-03-12T21:54:06.583Z,99.90
2023-03-12T21:59:10.659Z,99.90
2023-03-12T22:04:14.356Z,99.90
2023-03-12T22:09:19.706Z,99.90
2023-03-12T22:14:24.272Z,99.90
2023-03-12T22:19:27.708Z,99.90
2023-03-12T22:24:32.403Z,99.90
2023-03-12T22:29:36.132Z,99.90
2023-03-12T22:34:39.389Z,99.90
2023-03-12T22:39:45.906Z,99.90
2023-03-12T22:44:49.231Z,99.90
2023-03-12T22:49:53.157Z,99.90
2023-03-12T22:54:57.759Z,99.90
2023-03-12T23:00:01.158Z,99.90
2023-03-12T23:05:04.584Z,99.90
2023-03-12T23:10:10.767Z,99.90
2023-03-12T23:15:14.111Z,99.90
2023-03-12T23:20:17.575Z,99.90
2023-03-12T23:25:22.386Z,99.90
2023-03-12T23:30:25.688Z,99.90
2023-03-12T23:35:29.047Z,99.90
2023-03-12T23:40:33.830Z,99.90
2023-03-12T23:45:37.404Z,99.90
2023-03-12T23:50:41.244Z,99.90
2023-03-12T23:55:55.407Z,99.90
